King Salmon, AK

6:49 AM AKDT on July 31, 2014 (GMT -0800)
Chignik (PAJC) Elev 16 ft | 56.31 °N, 158.37 °W | Change Station

Current weather conditions updated 13 minutes ago

Mostly Cloudy
Mostly Cloudy
52 °F
Feels Like 52 °F
N
4
Wind Variable Wind from East

Today is forecast to be Cooler than yesterday.

Today
High -- | Low -- °F
--% Chance of Precip.
Yesterday
High -- | Low -- °F
Precip. -- in
6:32 AM 10:48 PM
Waxing Crescent, 19% visible
Pressure 30.29 in
Visibility -9999.0 miles
Clouds Mostly Cloudy 5500 ft
Dew Point 46 °F
Humidity 82%
Rainfall 0.00 in
Snow Depth Not available.
UV 0 out of 12
Pollen Not available.
Air Quality Not available.
Flu Activity Not available.
METAR PAJC 311436Z AUTO 10003KT BKN055 11/08 A3029 RMK AO1

More Conditions Fewer Conditions

Pressure 30.29 in
Visibility -9999.0 miles
Clouds Mostly Cloudy 5500 ft
Dew Point 46 °F
Humidity 82%
Rainfall 0.00 in
Snow Depth Not available.
UV 0 out of 12
Pollen Not available.
Air Quality Not available.
Flu Activity Not available.
METAR PAJC 311436Z AUTO 10003KT BKN055 11/08 A3029 RMK AO1

More Conditions Fewer Conditions

10-Day Weather Forecast

Almanac

Astronomy

Jul. 31, 2014 Rise Set
Actual Time 6:32 AM AKDT 10:48 PM AKDT
Civil Twilight 5:40 AM AKDT 11:39 PM AKDT
Nautical Twilight 4:20 AM AKDT 12:57 AM AKDT
Astronomical Twilight Sun does not rise 2:08 AM AKDT
Moon 12:17 PM AKDT 11:55 PM AKDT
Length of Visible Light 17h 58m
Length of Day
16h 16m
Tomorrow will be 4m 4s shorter.
Waxing Crescent, 19% of the Moon is Illuminated
Today
Waxing Crescent
Aug 3
First Quarter
Aug 10
Full
Aug 17
Last Quarter
Aug 25
New

Today's Extremes

State Highs State Lows

Community

WunderPhotos

Upload Photos

1,739,344 photos uploaded!

Nearby

Snow Depth

Station Depth Elevation
Port Graham 0 in 300 ft
Mcneil Canyon 1 in 1320 ft
MF Bradley River 356 in 2300 ft
Nuka Glacier 1 in 1250 ft
Cooper Lake 7 in 1200 ft

Earthquake Activity

City Distance Mag. Time & Date
No recent earthquake activity has been reported nearby.
Minimum magnitude displayed is 2.5.

Coastal Water Temperatures

Place Temperature
No Stations Reporting

Nearby Weather Stations

There are no personal weather stations in this area.